Dragocidental — CSYN4 — position and weather

sailwx.info

Track history (hours):
 
Tides and Currents Weather Stations Pressure Air Temp Water Temp Dewpoint Dewpoint Depression Visibility Wind Speed Wind Dir Waves Ship Positions

Dragocidental

Last reported at 2017-Feb-21 14:33 UTC. Time now 2017-Feb-21 14:41 UTC.
Position N 37°44' W 025°40'.

Length 30 m.

Type: Dredging. MMSI: 204671360.

Date/timePositionNaut miles runAvg speedWind from/ knotsBaromVisibWave heightAir tempDewpointWater temp
2017-Feb-21 14:33N 37°44' W 025°40'1 0.6
2017-Feb-21 13:34N 37°44' W 025°41'5 5.1
2017-Feb-21 12:33N 37°46' W 025°46'2 1.7
2017-Feb-21 11:33N 37°48' W 025°48'0 0.0
2017-Feb-21 10:33N 37°48' W 025°48'6 5.9
2017-Feb-21 09:33N 37°44' W 025°42'1 1.5
2017-Feb-21 08:33N 37°44' W 025°40'0 0.0
2017-Feb-21 07:33N 37°44' W 025°40'0 0.0
2017-Feb-21 06:33N 37°44' W 025°40'0 0.0
2017-Feb-21 05:33N 37°44' W 025°40'0 0.0
2017-Feb-21 04:33N 37°44' W 025°40'0 0.0
2017-Feb-21 03:33N 37°44' W 025°40'0 0.0
2017-Feb-21 02:33N 37°44' W 025°40'0 0.0
2017-Feb-21 01:33N 37°44' W 025°40'0 0.0
2017-Feb-21 00:33N 37°44' W 025°40'0 0.0
2017-Feb-20 23:33N 37°44' W 025°40'0 0.0
2017-Feb-20 22:33N 37°44' W 025°40'0 0.0
2017-Feb-20 21:33N 37°44' W 025°40'0 0.0
2017-Feb-20 20:33N 37°44' W 025°40'0 0.0
2017-Feb-20 19:33N 37°44' W 025°40'0 0.0
2017-Feb-20 18:33N 37°44' W 025°40'0 0.0
2017-Feb-20 17:33N 37°44' W 025°40'0 0.0
2017-Feb-20 16:33N 37°44' W 025°40'0 0.0
2017-Feb-20 15:33N 37°44' W 025°40'0 0.0
2017-Feb-20 14:34N 37°44' W 025°40'0 0.0
2017-Feb-20 13:33N 37°44' W 025°40'3 3.3
2017-Feb-20 12:33N 37°45' W 025°44'4 3.7
2017-Feb-20 11:32N 37°48' W 025°48'0 0.1
2017-Feb-20 10:33N 37°48' W 025°47'6 6.5
2017-Feb-20 09:33N 37°44' W 025°41'1 0.9
2017-Feb-20 08:32N 37°44' W 025°40'0 0.0
2017-Feb-20 07:32N 37°44' W 025°40'0 0.0
2017-Feb-20 06:32N 37°44' W 025°40'0 0.0
2017-Feb-20 05:32N 37°44' W 025°40'0 0.0
2017-Feb-20 04:32N 37°44' W 025°40'0 0.0
2017-Feb-20 03:32N 37°44' W 025°40'0 0.0
2017-Feb-20 02:32N 37°44' W 025°40'0 0.0
2017-Feb-20 01:32N 37°44' W 025°40'0 0.0
2017-Feb-20 00:32N 37°44' W 025°40'0 0.0
2017-Feb-19 23:32N 37°44' W 025°40'0 0.0
2017-Feb-19 22:32N 37°44' W 025°40'0 0.0
2017-Feb-19 21:32N 37°44' W 025°40'0 0.0
2017-Feb-19 20:32N 37°44' W 025°40'0 0.0
2017-Feb-19 19:32N 37°44' W 025°40'0 0.0
2017-Feb-19 18:29N 37°44' W 025°40'0 0.0
2017-Feb-19 17:32N 37°44' W 025°40'0 0.0
2017-Feb-19 16:32N 37°44' W 025°40'0 0.0
2017-Feb-19 15:32N 37°44' W 025°40'0 0.0
2017-Feb-19 14:29N 37°44' W 025°40'0 0.0
2017-Feb-19 13:32N 37°44' W 025°40'0 0.0
2017-Feb-19 12:32N 37°44' W 025°40'0 0.0
2017-Feb-19 11:32N 37°44' W 025°40'0 0.0
2017-Feb-19 10:32N 37°44' W 025°40'0 0.0
2017-Feb-19 09:32N 37°44' W 025°40'0 0.0
2017-Feb-19 08:32N 37°44' W 025°40'0 0.0
2017-Feb-19 07:32N 37°44' W 025°40'0 0.0
2017-Feb-19 06:32N 37°44' W 025°40'0 0.0
2017-Feb-19 05:32N 37°44' W 025°40'0 0.0
2017-Feb-19 04:32N 37°44' W 025°40'0 0.0
2017-Feb-19 03:32N 37°44' W 025°40'0 0.0
2017-Feb-19 02:32N 37°44' W 025°40'0 0.0
2017-Feb-19 01:32N 37°44' W 025°40'0 0.0
2017-Feb-19 00:32N 37°44' W 025°40'0 0.0
2017-Feb-18 23:32N 37°44' W 025°40'0 0.0
2017-Feb-18 22:32N 37°44' W 025°40'0 0.0
2017-Feb-18 21:32N 37°44' W 025°40'0 0.0
2017-Feb-18 20:32N 37°44' W 025°40'0 0.0
2017-Feb-18 19:32N 37°44' W 025°40'0 0.0
2017-Feb-18 18:32N 37°44' W 025°40'0 0.0
2017-Feb-18 17:32N 37°44' W 025°40'0 0.0
2017-Feb-18 16:32N 37°44' W 025°40'0 0.0
2017-Feb-18 15:32N 37°44' W 025°40'0 0.0
2017-Feb-18 14:32N 37°44' W 025°40'0 0.0
2017-Feb-18 13:32N 37°44' W 025°40'0 0.0
2017-Feb-18 12:32N 37°44' W 025°40'0 0.0
2017-Feb-18 11:32N 37°44' W 025°40'0 0.0
2017-Feb-18 10:32N 37°44' W 025°40'0 0.0
2017-Feb-18 09:32N 37°44' W 025°40'0 0.0
2017-Feb-18 08:32N 37°44' W 025°40'0 0.0
2017-Feb-18 07:32N 37°44' W 025°40'0 0.0
2017-Feb-18 06:32N 37°44' W 025°40'0 0.0
2017-Feb-18 05:32N 37°44' W 025°40'0 0.0
2017-Feb-18 04:32N 37°44' W 025°40'0 0.0
2017-Feb-18 03:32N 37°44' W 025°40'0 0.0
2017-Feb-18 02:32N 37°44' W 025°40'0 0.0
2017-Feb-18 01:32N 37°44' W 025°40'0 0.0
2017-Feb-18 00:32N 37°44' W 025°40'0 0.0
2017-Feb-17 23:32N 37°44' W 025°40'0 0.0
2017-Feb-17 22:32N 37°44' W 025°40'0 0.0
2017-Feb-17 21:32N 37°44' W 025°40'0 0.0
2017-Feb-17 20:32N 37°44' W 025°40'0 0.0
2017-Feb-17 19:32N 37°44' W 025°40'0 0.0
2017-Feb-17 18:32N 37°44' W 025°40'0 0.0
2017-Feb-17 17:32N 37°44' W 025°40'0 0.0
2017-Feb-17 16:32N 37°44' W 025°40'0 0.0
2017-Feb-17 15:32N 37°44' W 025°40'0 0.0
2017-Feb-17 14:32N 37°44' W 025°40'1 0.6
2017-Feb-17 13:33N 37°44' W 025°41'5 5.1
2017-Feb-17 12:33N 37°46' W 025°46'2 1.8
2017-Feb-17 11:33N 37°48' W 025°48'0 0.2
2017-Feb-17 10:33N 37°48' W 025°47'6 6.1
2017-Feb-17 09:33N 37°44' W 025°42'1 1.4
2017-Feb-17 08:33N 37°44' W 025°40'0 0.0
2017-Feb-17 07:33N 37°44' W 025°40'0 0.0
2017-Feb-17 06:33N 37°44' W 025°40'0 0.0
2017-Feb-17 05:33N 37°44' W 025°40'0 0.0
2017-Feb-17 04:33N 37°44' W 025°40'0 0.0
2017-Feb-17 03:33N 37°44' W 025°40'0 0.0
2017-Feb-17 02:33N 37°44' W 025°40'0 0.0
2017-Feb-17 01:33N 37°44' W 025°40'0 0.0
2017-Feb-17 00:33N 37°44' W 025°40'0 0.0
2017-Feb-16 23:33N 37°44' W 025°40'0 0.0
2017-Feb-16 22:33N 37°44' W 025°40'0 0.0
2017-Feb-16 21:33N 37°44' W 025°40'0 0.0
2017-Feb-16 20:33N 37°44' W 025°40'0 0.0
2017-Feb-16 19:33N 37°44' W 025°40'0 0.0
2017-Feb-16 18:33N 37°44' W 025°40'0 0.0
2017-Feb-16 17:33N 37°44' W 025°40'0 0.0
2017-Feb-16 16:33N 37°44' W 025°40'0 0.0
2017-Feb-16 15:33N 37°44' W 025°40'0 0.0
2017-Feb-16 14:33N 37°44' W 025°40'2 1.6
2017-Feb-16 13:33N 37°44' W 025°42'5 4.7
2017-Feb-16 12:33N 37°47' W 025°47'1 1.4
2017-Feb-16 11:33N 37°48' W 025°48'0 0.0
2017-Feb-16 10:33N 37°48' W 025°48'6 6.1
2017-Feb-16 09:33N 37°44' W 025°42'2 1.5
2017-Feb-16 08:32N 37°44' W 025°40'0 0.0
2017-Feb-16 07:32N 37°44' W 025°40'0 0.0
2017-Feb-16 06:32N 37°44' W 025°40'0 0.0
2017-Feb-16 05:32N 37°44' W 025°40'0 0.0
2017-Feb-16 04:33N 37°44' W 025°40'0 0.0
2017-Feb-16 03:32N 37°44' W 025°40'0 0.0
2017-Feb-16 02:32N 37°44' W 025°40'0 0.0
2017-Feb-16 01:32N 37°44' W 025°40'0 0.0
2017-Feb-16 00:32N 37°44' W 025°40'0 0.0
2017-Feb-15 23:32N 37°44' W 025°40'0 0.0
2017-Feb-15 22:32N 37°44' W 025°40'0 0.0
2017-Feb-15 21:32N 37°44' W 025°40'0 0.0
2017-Feb-15 20:32N 37°44' W 025°40'0 0.0
2017-Feb-15 19:32N 37°44' W 025°40'0 0.0
2017-Feb-15 18:32N 37°44' W 025°40'0 0.0
2017-Feb-15 17:33N 37°44' W 025°40'0 0.0
2017-Feb-15 16:32N 37°44' W 025°40'0 0.0
2017-Feb-15 15:32N 37°44' W 025°40'0 0.0
2017-Feb-15 14:33N 37°44' W 025°40'0 0.5
2017-Feb-15 13:33N 37°44' W 025°39'5 4.7
2017-Feb-15 12:33N 37°45' W 025°45'3 3.1
2017-Feb-15 11:33N 37°48' W 025°48'0 0.0
2017-Feb-15 10:33N 37°48' W 025°48'6 5.8
2017-Feb-15 09:33N 37°44' W 025°42'2 1.6
2017-Feb-15 08:33N 37°44' W 025°40'0 0.0
2017-Feb-15 07:33N 37°44' W 025°40'0 0.0
2017-Feb-15 06:33N 37°44' W 025°40'0 0.0
2017-Feb-15 05:33N 37°44' W 025°40'0 0.0
2017-Feb-15 04:33N 37°44' W 025°40'0 0.0
2017-Feb-15 03:33N 37°44' W 025°40'0 0.0
2017-Feb-15 02:33N 37°44' W 025°40'0 0.0
2017-Feb-15 01:33N 37°44' W 025°40'0 0.0
2017-Feb-15 00:33N 37°44' W 025°40'0 0.0
2017-Feb-14 23:33N 37°44' W 025°40'0 0.0
2017-Feb-14 22:33N 37°44' W 025°40'0 0.0
2017-Feb-14 21:33N 37°44' W 025°40'0 0.0
2017-Feb-14 20:33N 37°44' W 025°40'0 0.0
2017-Feb-14 19:33N 37°44' W 025°40'0 0.0
2017-Feb-14 18:33N 37°44' W 025°40'0 0.0
2017-Feb-14 17:33N 37°44' W 025°40'0 0.0
2017-Feb-14 16:33N 37°44' W 025°40'0 0.0
2017-Feb-14 15:33N 37°44' W 025°40'0 0.0
2017-Feb-14 14:33N 37°44' W 025°40'0 0.0
2017-Feb-14 13:33N 37°44' W 025°40'3 2.6
2017-Feb-14 12:33N 37°44' W 025°43'5 4.6
2017-Feb-14 11:32N 37°48' W 025°48'0 0.0
2017-Feb-14 10:33N 37°48' W 025°48'6 6.0
2017-Feb-14 09:33N 37°44' W 025°42'1 1.4
2017-Feb-14 08:32N 37°44' W 025°40'0 0.0
2017-Feb-14 07:32N 37°44' W 025°40'0 0.0
2017-Feb-14 06:32N 37°44' W 025°40'0 0.0
2017-Feb-14 05:32N 37°44' W 025°40'0 0.0
2017-Feb-14 04:32N 37°44' W 025°40'0 0.0
2017-Feb-14 03:32N 37°44' W 025°40'0 0.0
2017-Feb-14 02:32N 37°44' W 025°40'0 0.0
2017-Feb-14 01:32N 37°44' W 025°40'0 0.0
2017-Feb-14 00:32N 37°44' W 025°40'0 0.0
2017-Feb-13 23:32N 37°44' W 025°40'0 0.0
2017-Feb-13 22:32N 37°44' W 025°40'0 0.0
2017-Feb-13 21:29N 37°44' W 025°40'0 0.0
2017-Feb-13 20:32N 37°44' W 025°40'0 0.0
2017-Feb-13 19:32N 37°44' W 025°40'0 0.0
2017-Feb-13 18:32N 37°44' W 025°40'0 0.0
2017-Feb-13 17:32N 37°44' W 025°40'0 0.0
2017-Feb-13 16:32N 37°44' W 025°40'0 0.0
2017-Feb-13 15:32N 37°44' W 025°40'0 0.0
2017-Feb-13 14:32N 37°44' W 025°40'0 0.5
2017-Feb-13 13:33N 37°44' W 025°40'5 5.4
2017-Feb-13 12:33N 37°47' W 025°46'2 1.5
2017-Feb-13 11:31N 37°48' W 025°48'1 0.6
2017-Feb-13 10:33N 37°47' W 025°47'6 6.1
2017-Feb-13 09:33N 37°44' W 025°41'1 0.8
2017-Feb-13 08:33N 37°44' W 025°40'0 0.0
2017-Feb-13 07:33N 37°44' W 025°40'0 0.0
2017-Feb-13 06:33N 37°44' W 025°40'0 0.0
2017-Feb-13 05:33N 37°44' W 025°40'0 0.0
2017-Feb-13 04:33N 37°44' W 025°40'0 0.0
2017-Feb-13 03:33N 37°44' W 025°40'0 0.0
2017-Feb-13 02:33N 37°44' W 025°40'0 0.0
2017-Feb-13 01:33N 37°44' W 025°40'0 0.0
2017-Feb-13 00:33N 37°44' W 025°40'0 0.0
2017-Feb-12 23:33N 37°44' W 025°40'0 0.0
2017-Feb-12 22:33N 37°44' W 025°40'0 0.0
2017-Feb-12 21:33N 37°44' W 025°40'0 0.0
2017-Feb-12 20:33N 37°44' W 025°40'0 0.0
2017-Feb-12 19:34N 37°44' W 025°40'0 0.0
2017-Feb-12 18:33N 37°44' W 025°40'0 0.0
2017-Feb-12 17:33N 37°44' W 025°40'0 0.0
2017-Feb-12 16:34N 37°44' W 025°40'0 0.0
2017-Feb-12 15:34N 37°44' W 025°40'0 0.0
2017-Feb-12 14:33N 37°44' W 025°40'0 0.0
2017-Feb-12 13:33N 37°44' W 025°40'0 0.0
2017-Feb-12 12:33N 37°44' W 025°40'0 0.0
2017-Feb-12 11:31N 37°44' W 025°40'0 0.0
2017-Feb-12 10:33N 37°44' W 025°40'0 0.0
2017-Feb-12 09:33N 37°44' W 025°40'0 0.0
2017-Feb-12 08:34N 37°44' W 025°40'0 0.0
2017-Feb-12 07:31N 37°44' W 025°40'0 0.0
2017-Feb-12 06:34N 37°44' W 025°40'0 0.0
2017-Feb-12 05:33N 37°44' W 025°40'0 0.0
2017-Feb-12 04:34N 37°44' W 025°40'0 0.0
2017-Feb-12 03:31N 37°44' W 025°40'0 0.0
2017-Feb-12 02:31N 37°44' W 025°40'0 0.0
2017-Feb-12 01:31N 37°44' W 025°40'0 0.0
2017-Feb-12 00:31N 37°44' W 025°40'0 0.0
2017-Feb-11 23:31N 37°44' W 025°40'0 0.0
2017-Feb-11 22:31N 37°44' W 025°40'0 0.0
2017-Feb-11 21:31N 37°44' W 025°40'0 0.0
2017-Feb-11 20:31N 37°44' W 025°40'0 0.0
2017-Feb-11 19:31N 37°44' W 025°40'0 0.0
2017-Feb-11 18:31N 37°44' W 025°40'0 0.0
2017-Feb-11 17:31N 37°44' W 025°40'0 0.0
2017-Feb-11 16:31N 37°44' W 025°40'0 0.0
2017-Feb-11 15:31N 37°44' W 025°40'  
Track history (hours):
 
Tides and Currents Weather Stations Pressure Air Temp Water Temp Dewpoint Dewpoint Depression Visibility Wind Speed Wind Dir Waves Ship Positions

Dragocidental

Last reported at 2017-Feb-21 14:33 UTC. Time now 2017-Feb-21 14:41 UTC.
Position N 37°44' W 025°40'.

Length 30 m.

Type: Dredging. MMSI: 204671360.

Date/timePositionNaut miles runAvg speedWind from/ knotsBaromVisibWave heightAir tempDewpointWater temp
2017-Feb-21 14:33N 37°44' W 025°40'1 0.6
2017-Feb-21 13:34N 37°44' W 025°41'5 5.1
2017-Feb-21 12:33N 37°46' W 025°46'2 1.7
2017-Feb-21 11:33N 37°48' W 025°48'0 0.0
2017-Feb-21 10:33N 37°48' W 025°48'6 5.9
2017-Feb-21 09:33N 37°44' W 025°42'1 1.5
2017-Feb-21 08:33N 37°44' W 025°40'0 0.0
2017-Feb-21 07:33N 37°44' W 025°40'0 0.0
2017-Feb-21 06:33N 37°44' W 025°40'0 0.0
2017-Feb-21 05:33N 37°44' W 025°40'0 0.0
2017-Feb-21 04:33N 37°44' W 025°40'0 0.0
2017-Feb-21 03:33N 37°44' W 025°40'0 0.0
2017-Feb-21 02:33N 37°44' W 025°40'0 0.0
2017-Feb-21 01:33N 37°44' W 025°40'0 0.0
2017-Feb-21 00:33N 37°44' W 025°40'0 0.0
2017-Feb-20 23:33N 37°44' W 025°40'0 0.0
2017-Feb-20 22:33N 37°44' W 025°40'0 0.0
2017-Feb-20 21:33N 37°44' W 025°40'0 0.0
2017-Feb-20 20:33N 37°44' W 025°40'0 0.0
2017-Feb-20 19:33N 37°44' W 025°40'0 0.0
2017-Feb-20 18:33N 37°44' W 025°40'0 0.0
2017-Feb-20 17:33N 37°44' W 025°40'0 0.0
2017-Feb-20 16:33N 37°44' W 025°40'0 0.0
2017-Feb-20 15:33N 37°44' W 025°40'0 0.0
2017-Feb-20 14:34N 37°44' W 025°40'0 0.0
2017-Feb-20 13:33N 37°44' W 025°40'3 3.3
2017-Feb-20 12:33N 37°45' W 025°44'4 3.7
2017-Feb-20 11:32N 37°48' W 025°48'0 0.1
2017-Feb-20 10:33N 37°48' W 025°47'6 6.5
2017-Feb-20 09:33N 37°44' W 025°41'1 0.9
2017-Feb-20 08:32N 37°44' W 025°40'0 0.0
2017-Feb-20 07:32N 37°44' W 025°40'0 0.0
2017-Feb-20 06:32N 37°44' W 025°40'0 0.0
2017-Feb-20 05:32N 37°44' W 025°40'0 0.0
2017-Feb-20 04:32N 37°44' W 025°40'0 0.0
2017-Feb-20 03:32N 37°44' W 025°40'0 0.0
2017-Feb-20 02:32N 37°44' W 025°40'0 0.0
2017-Feb-20 01:32N 37°44' W 025°40'0 0.0
2017-Feb-20 00:32N 37°44' W 025°40'0 0.0
2017-Feb-19 23:32N 37°44' W 025°40'0 0.0
2017-Feb-19 22:32N 37°44' W 025°40'0 0.0
2017-Feb-19 21:32N 37°44' W 025°40'0 0.0
2017-Feb-19 20:32N 37°44' W 025°40'0 0.0
2017-Feb-19 19:32N 37°44' W 025°40'0 0.0
2017-Feb-19 18:29N 37°44' W 025°40'0 0.0
2017-Feb-19 17:32N 37°44' W 025°40'0 0.0
2017-Feb-19 16:32N 37°44' W 025°40'0 0.0
2017-Feb-19 15:32N 37°44' W 025°40'0 0.0
2017-Feb-19 14:29N 37°44' W 025°40'0 0.0
2017-Feb-19 13:32N 37°44' W 025°40'0 0.0
2017-Feb-19 12:32N 37°44' W 025°40'0 0.0
2017-Feb-19 11:32N 37°44' W 025°40'0 0.0
2017-Feb-19 10:32N 37°44' W 025°40'0 0.0
2017-Feb-19 09:32N 37°44' W 025°40'0 0.0
2017-Feb-19 08:32N 37°44' W 025°40'0 0.0
2017-Feb-19 07:32N 37°44' W 025°40'0 0.0
2017-Feb-19 06:32N 37°44' W 025°40'0 0.0
2017-Feb-19 05:32N 37°44' W 025°40'0 0.0
2017-Feb-19 04:32N 37°44' W 025°40'0 0.0
2017-Feb-19 03:32N 37°44' W 025°40'0 0.0
2017-Feb-19 02:32N 37°44' W 025°40'0 0.0
2017-Feb-19 01:32N 37°44' W 025°40'0 0.0
2017-Feb-19 00:32N 37°44' W 025°40'0 0.0
2017-Feb-18 23:32N 37°44' W 025°40'0 0.0
2017-Feb-18 22:32N 37°44' W 025°40'0 0.0
2017-Feb-18 21:32N 37°44' W 025°40'0 0.0
2017-Feb-18 20:32N 37°44' W 025°40'0 0.0
2017-Feb-18 19:32N 37°44' W 025°40'0 0.0
2017-Feb-18 18:32N 37°44' W 025°40'0 0.0
2017-Feb-18 17:32N 37°44' W 025°40'0 0.0
2017-Feb-18 16:32N 37°44' W 025°40'0 0.0
2017-Feb-18 15:32N 37°44' W 025°40'0 0.0
2017-Feb-18 14:32N 37°44' W 025°40'0 0.0
2017-Feb-18 13:32N 37°44' W 025°40'0 0.0
2017-Feb-18 12:32N 37°44' W 025°40'0 0.0
2017-Feb-18 11:32N 37°44' W 025°40'0 0.0
2017-Feb-18 10:32N 37°44' W 025°40'0 0.0
2017-Feb-18 09:32N 37°44' W 025°40'0 0.0
2017-Feb-18 08:32N 37°44' W 025°40'0 0.0
2017-Feb-18 07:32N 37°44' W 025°40'0 0.0
2017-Feb-18 06:32N 37°44' W 025°40'0 0.0
2017-Feb-18 05:32N 37°44' W 025°40'0 0.0
2017-Feb-18 04:32N 37°44' W 025°40'0 0.0
2017-Feb-18 03:32N 37°44' W 025°40'0 0.0
2017-Feb-18 02:32N 37°44' W 025°40'0 0.0
2017-Feb-18 01:32N 37°44' W 025°40'0 0.0
2017-Feb-18 00:32N 37°44' W 025°40'0 0.0
2017-Feb-17 23:32N 37°44' W 025°40'0 0.0
2017-Feb-17 22:32N 37°44' W 025°40'0 0.0
2017-Feb-17 21:32N 37°44' W 025°40'0 0.0
2017-Feb-17 20:32N 37°44' W 025°40'0 0.0
2017-Feb-17 19:32N 37°44' W 025°40'0 0.0
2017-Feb-17 18:32N 37°44' W 025°40'0 0.0
2017-Feb-17 17:32N 37°44' W 025°40'0 0.0
2017-Feb-17 16:32N 37°44' W 025°40'0 0.0
2017-Feb-17 15:32N 37°44' W 025°40'0 0.0
2017-Feb-17 14:32N 37°44' W 025°40'1 0.6
2017-Feb-17 13:33N 37°44' W 025°41'5 5.1
2017-Feb-17 12:33N 37°46' W 025°46'2 1.8
2017-Feb-17 11:33N 37°48' W 025°48'0 0.2
2017-Feb-17 10:33N 37°48' W 025°47'6 6.1
2017-Feb-17 09:33N 37°44' W 025°42'1 1.4
2017-Feb-17 08:33N 37°44' W 025°40'0 0.0
2017-Feb-17 07:33N 37°44' W 025°40'0 0.0
2017-Feb-17 06:33N 37°44' W 025°40'0 0.0
2017-Feb-17 05:33N 37°44' W 025°40'0 0.0
2017-Feb-17 04:33N 37°44' W 025°40'0 0.0
2017-Feb-17 03:33N 37°44' W 025°40'0 0.0
2017-Feb-17 02:33N 37°44' W 025°40'0 0.0
2017-Feb-17 01:33N 37°44' W 025°40'0 0.0
2017-Feb-17 00:33N 37°44' W 025°40'0 0.0
2017-Feb-16 23:33N 37°44' W 025°40'0 0.0
2017-Feb-16 22:33N 37°44' W 025°40'0 0.0
2017-Feb-16 21:33N 37°44' W 025°40'0 0.0
2017-Feb-16 20:33N 37°44' W 025°40'0 0.0
2017-Feb-16 19:33N 37°44' W 025°40'0 0.0
2017-Feb-16 18:33N 37°44' W 025°40'0 0.0
2017-Feb-16 17:33N 37°44' W 025°40'0 0.0
2017-Feb-16 16:33N 37°44' W 025°40'0 0.0
2017-Feb-16 15:33N 37°44' W 025°40'0 0.0
2017-Feb-16 14:33N 37°44' W 025°40'2 1.6
2017-Feb-16 13:33N 37°44' W 025°42'5 4.7
2017-Feb-16 12:33N 37°47' W 025°47'1 1.4
2017-Feb-16 11:33N 37°48' W 025°48'0 0.0
2017-Feb-16 10:33N 37°48' W 025°48'6 6.1
2017-Feb-16 09:33N 37°44' W 025°42'2 1.5
2017-Feb-16 08:32N 37°44' W 025°40'0 0.0
2017-Feb-16 07:32N 37°44' W 025°40'0 0.0
2017-Feb-16 06:32N 37°44' W 025°40'0 0.0
2017-Feb-16 05:32N 37°44' W 025°40'0 0.0
2017-Feb-16 04:33N 37°44' W 025°40'0 0.0
2017-Feb-16 03:32N 37°44' W 025°40'0 0.0
2017-Feb-16 02:32N 37°44' W 025°40'0 0.0
2017-Feb-16 01:32N 37°44' W 025°40'0 0.0
2017-Feb-16 00:32N 37°44' W 025°40'0 0.0
2017-Feb-15 23:32N 37°44' W 025°40'0 0.0
2017-Feb-15 22:32N 37°44' W 025°40'0 0.0
2017-Feb-15 21:32N 37°44' W 025°40'0 0.0
2017-Feb-15 20:32N 37°44' W 025°40'0 0.0
2017-Feb-15 19:32N 37°44' W 025°40'0 0.0
2017-Feb-15 18:32N 37°44' W 025°40'0 0.0
2017-Feb-15 17:33N 37°44' W 025°40'0 0.0
2017-Feb-15 16:32N 37°44' W 025°40'0 0.0
2017-Feb-15 15:32N 37°44' W 025°40'0 0.0
2017-Feb-15 14:33N 37°44' W 025°40'0 0.5
2017-Feb-15 13:33N 37°44' W 025°39'5 4.7
2017-Feb-15 12:33N 37°45' W 025°45'3 3.1
2017-Feb-15 11:33N 37°48' W 025°48'0 0.0
2017-Feb-15 10:33N 37°48' W 025°48'6 5.8
2017-Feb-15 09:33N 37°44' W 025°42'2 1.6
2017-Feb-15 08:33N 37°44' W 025°40'0 0.0
2017-Feb-15 07:33N 37°44' W 025°40'0 0.0
2017-Feb-15 06:33N 37°44' W 025°40'0 0.0
2017-Feb-15 05:33N 37°44' W 025°40'0 0.0
2017-Feb-15 04:33N 37°44' W 025°40'0 0.0
2017-Feb-15 03:33N 37°44' W 025°40'0 0.0
2017-Feb-15 02:33N 37°44' W 025°40'0 0.0
2017-Feb-15 01:33N 37°44' W 025°40'0 0.0
2017-Feb-15 00:33N 37°44' W 025°40'0 0.0
2017-Feb-14 23:33N 37°44' W 025°40'0 0.0
2017-Feb-14 22:33N 37°44' W 025°40'0 0.0
2017-Feb-14 21:33N 37°44' W 025°40'0 0.0
2017-Feb-14 20:33N 37°44' W 025°40'0 0.0
2017-Feb-14 19:33N 37°44' W 025°40'0 0.0
2017-Feb-14 18:33N 37°44' W 025°40'0 0.0
2017-Feb-14 17:33N 37°44' W 025°40'0 0.0
2017-Feb-14 16:33N 37°44' W 025°40'0 0.0
2017-Feb-14 15:33N 37°44' W 025°40'0 0.0
2017-Feb-14 14:33N 37°44' W 025°40'0 0.0
2017-Feb-14 13:33N 37°44' W 025°40'3 2.6
2017-Feb-14 12:33N 37°44' W 025°43'5 4.6
2017-Feb-14 11:32N 37°48' W 025°48'0 0.0
2017-Feb-14 10:33N 37°48' W 025°48'6 6.0
2017-Feb-14 09:33N 37°44' W 025°42'1 1.4
2017-Feb-14 08:32N 37°44' W 025°40'0 0.0
2017-Feb-14 07:32N 37°44' W 025°40'0 0.0
2017-Feb-14 06:32N 37°44' W 025°40'0 0.0
2017-Feb-14 05:32N 37°44' W 025°40'0 0.0
2017-Feb-14 04:32N 37°44' W 025°40'0 0.0
2017-Feb-14 03:32N 37°44' W 025°40'0 0.0
2017-Feb-14 02:32N 37°44' W 025°40'0 0.0
2017-Feb-14 01:32N 37°44' W 025°40'0 0.0
2017-Feb-14 00:32N 37°44' W 025°40'0 0.0
2017-Feb-13 23:32N 37°44' W 025°40'0 0.0
2017-Feb-13 22:32N 37°44' W 025°40'0 0.0
2017-Feb-13 21:29N 37°44' W 025°40'0 0.0
2017-Feb-13 20:32N 37°44' W 025°40'0 0.0
2017-Feb-13 19:32N 37°44' W 025°40'0 0.0
2017-Feb-13 18:32N 37°44' W 025°40'0 0.0
2017-Feb-13 17:32N 37°44' W 025°40'0 0.0
2017-Feb-13 16:32N 37°44' W 025°40'0 0.0
2017-Feb-13 15:32N 37°44' W 025°40'0 0.0
2017-Feb-13 14:32N 37°44' W 025°40'0 0.5
2017-Feb-13 13:33N 37°44' W 025°40'5 5.4
2017-Feb-13 12:33N 37°47' W 025°46'2 1.5
2017-Feb-13 11:31N 37°48' W 025°48'1 0.6
2017-Feb-13 10:33N 37°47' W 025°47'6 6.1
2017-Feb-13 09:33N 37°44' W 025°41'1 0.8
2017-Feb-13 08:33N 37°44' W 025°40'0 0.0
2017-Feb-13 07:33N 37°44' W 025°40'0 0.0
2017-Feb-13 06:33N 37°44' W 025°40'0 0.0
2017-Feb-13 05:33N 37°44' W 025°40'0 0.0
2017-Feb-13 04:33N 37°44' W 025°40'0 0.0
2017-Feb-13 03:33N 37°44' W 025°40'0 0.0
2017-Feb-13 02:33N 37°44' W 025°40'0 0.0
2017-Feb-13 01:33N 37°44' W 025°40'0 0.0
2017-Feb-13 00:33N 37°44' W 025°40'0 0.0
2017-Feb-12 23:33N 37°44' W 025°40'0 0.0
2017-Feb-12 22:33N 37°44' W 025°40'0 0.0
2017-Feb-12 21:33N 37°44' W 025°40'0 0.0
2017-Feb-12 20:33N 37°44' W 025°40'0 0.0
2017-Feb-12 19:34N 37°44' W 025°40'0 0.0
2017-Feb-12 18:33N 37°44' W 025°40'0 0.0
2017-Feb-12 17:33N 37°44' W 025°40'0 0.0
2017-Feb-12 16:34N 37°44' W 025°40'0 0.0
2017-Feb-12 15:34N 37°44' W 025°40'0 0.0
2017-Feb-12 14:33N 37°44' W 025°40'0 0.0
2017-Feb-12 13:33N 37°44' W 025°40'0 0.0
2017-Feb-12 12:33N 37°44' W 025°40'0 0.0
2017-Feb-12 11:31N 37°44' W 025°40'0 0.0
2017-Feb-12 10:33N 37°44' W 025°40'0 0.0
2017-Feb-12 09:33N 37°44' W 025°40'0 0.0
2017-Feb-12 08:34N 37°44' W 025°40'0 0.0
2017-Feb-12 07:31N 37°44' W 025°40'0 0.0
2017-Feb-12 06:34N 37°44' W 025°40'0 0.0
2017-Feb-12 05:33N 37°44' W 025°40'0 0.0
2017-Feb-12 04:34N 37°44' W 025°40'0 0.0
2017-Feb-12 03:31N 37°44' W 025°40'0 0.0
2017-Feb-12 02:31N 37°44' W 025°40'0 0.0
2017-Feb-12 01:31N 37°44' W 025°40'0 0.0
2017-Feb-12 00:31N 37°44' W 025°40'0 0.0
2017-Feb-11 23:31N 37°44' W 025°40'0 0.0
2017-Feb-11 22:31N 37°44' W 025°40'0 0.0
2017-Feb-11 21:31N 37°44' W 025°40'0 0.0
2017-Feb-11 20:31N 37°44' W 025°40'0 0.0
2017-Feb-11 19:31N 37°44' W 025°40'0 0.0
2017-Feb-11 18:31N 37°44' W 025°40'0 0.0
2017-Feb-11 17:31N 37°44' W 025°40'0 0.0
2017-Feb-11 16:31N 37°44' W 025°40'0 0.0
2017-Feb-11 15:31N 37°44' W 025°40'  

Dump ship's entire track history